sensor_id;sensor_type;location;lat;lon;timestamp;pressure;altitude;pressure_sealevel;temperature;humidity
36664;BME280;53333;51.976;20.144;2023-04-20T00:00:11;100494.38;;;9.27;72.87
36664;BME280;53333;51.976;20.144;2023-04-20T00:02:44;100498.03;;;9.24;72.97
36664;BME280;53333;51.976;20.144;2023-04-20T00:05:18;100492.69;;;9.24;72.83
36664;BME280;53333;51.976;20.144;2023-04-20T00:07:51;100492.81;;;9.21;72.84
36664;BME280;53333;51.976;20.144;2023-04-20T00:10:26;100484.88;;;9.20;72.79
36664;BME280;53333;51.976;20.144;2023-04-20T00:12:59;100487.59;;;9.18;72.88
36664;BME280;53333;51.976;20.144;2023-04-20T00:15:32;100486.78;;;9.16;72.92
36664;BME280;53333;51.976;20.144;2023-04-20T00:18:05;100494.91;;;9.13;72.80
36664;BME280;53333;51.976;20.144;2023-04-20T00:20:39;100491.50;;;9.09;73.00
36664;BME280;53333;51.976;20.144;2023-04-20T00:23:12;100492.41;;;9.08;72.94
36664;BME280;53333;51.976;20.144;2023-04-20T00:25:46;100484.47;;;9.07;72.94
36664;BME280;53333;51.976;20.144;2023-04-20T00:28:20;100481.00;;;9.05;73.04
36664;BME280;53333;51.976;20.144;2023-04-20T00:30:53;100484.56;;;9.04;73.04
36664;BME280;53333;51.976;20.144;2023-04-20T00:33:26;100482.81;;;9.03;73.06
36664;BME280;53333;51.976;20.144;2023-04-20T00:35:59;100481.16;;;9.00;72.98
36664;BME280;53333;51.976;20.144;2023-04-20T00:38:32;100482.13;;;8.98;73.17
36664;BME280;53333;51.976;20.144;2023-04-20T00:41:07;100477.81;;;8.95;73.13
36664;BME280;53333;51.976;20.144;2023-04-20T00:43:48;100480.31;;;8.98;73.11
36664;BME280;53333;51.976;20.144;2023-04-20T00:46:22;100479.63;;;8.93;73.06
36664;BME280;53333;51.976;20.144;2023-04-20T00:48:55;100475.19;;;8.94;72.97
36664;BME280;53333;51.976;20.144;2023-04-20T00:51:30;100474.41;;;8.90;72.89
36664;BME280;53333;51.976;20.144;2023-04-20T00:54:03;100468.34;;;8.86;72.82
36664;BME280;53333;51.976;20.144;2023-04-20T00:56:38;100472.94;;;8.83;72.96
36664;BME280;53333;51.976;20.144;2023-04-20T00:59:11;100471.28;;;8.79;72.98
36664;BME280;53333;51.976;20.144;2023-04-20T01:01:44;100474.16;;;8.72;72.82
36664;BME280;53333;51.976;20.144;2023-04-20T01:04:18;100478.41;;;8.78;72.74
36664;BME280;53333;51.976;20.144;2023-04-20T01:06:51;100485.19;;;8.63;72.89
36664;BME280;53333;51.976;20.144;2023-04-20T01:09:25;100483.63;;;8.56;72.81
36664;BME280;53333;51.976;20.144;2023-04-20T01:11:59;100482.13;;;8.49;73.06
36664;BME280;53333;51.976;20.144;2023-04-20T01:14:33;100486.75;;;8.42;73.25
36664;BME280;53333;51.976;20.144;2023-04-20T01:17:06;100486.91;;;8.37;73.36
36664;BME280;53333;51.976;20.144;2023-04-20T01:19:40;100485.75;;;8.46;72.97
36664;BME280;53333;51.976;20.144;2023-04-20T01:22:17;100487.13;;;8.31;73.14
36664;BME280;53333;51.976;20.144;2023-04-20T01:24:51;100481.97;;;8.27;73.33
36664;BME280;53333;51.976;20.144;2023-04-20T01:27:24;100480.31;;;8.23;73.28
36664;BME280;53333;51.976;20.144;2023-04-20T01:29:57;100475.19;;;8.16;73.50
36664;BME280;53333;51.976;20.144;2023-04-20T01:32:30;100483.22;;;8.15;73.45
36664;BME280;53333;51.976;20.144;2023-04-20T01:35:05;100474.53;;;8.10;73.38
36664;BME280;53333;51.976;20.144;2023-04-20T01:37:39;100479.09;;;8.06;73.41
36664;BME280;53333;51.976;20.144;2023-04-20T01:40:13;100481.91;;;8.02;73.36
36664;BME280;53333;51.976;20.144;2023-04-20T01:42:46;100478.53;;;7.96;73.40
36664;BME280;53333;51.976;20.144;2023-04-20T01:45:19;100478.69;;;7.92;73.47
36664;BME280;53333;51.976;20.144;2023-04-20T01:47:52;100473.56;;;7.86;73.70
36664;BME280;53333;51.976;20.144;2023-04-20T01:50:25;100479.88;;;7.81;73.57
36664;BME280;53333;51.976;20.144;2023-04-20T01:53:00;100468.50;;;7.78;73.83
36664;BME280;53333;51.976;20.144;2023-04-20T01:55:33;100470.34;;;7.76;73.71
36664;BME280;53333;51.976;20.144;2023-04-20T01:58:06;100474.88;;;7.72;73.67
36664;BME280;53333;51.976;20.144;2023-04-20T02:00:39;100478.56;;;7.68;73.78
36664;BME280;53333;51.976;20.144;2023-04-20T02:03:12;100466.25;;;7.64;73.58
36664;BME280;53333;51.976;20.144;2023-04-20T02:05:46;100478.78;;;7.60;73.69
36664;BME280;53333;51.976;20.144;2023-04-20T02:08:21;100476.31;;;7.54;73.91
36664;BME280;53333;51.976;20.144;2023-04-20T02:10:54;100472.03;;;7.50;73.80
36664;BME280;53333;51.976;20.144;2023-04-20T02:13:27;100477.41;;;7.49;73.91
36664;BME280;53333;51.976;20.144;2023-04-20T02:16:00;100477.53;;;7.44;73.88
36664;BME280;53333;51.976;20.144;2023-04-20T02:18:33;100493.53;;;7.42;73.85
36664;BME280;53333;51.976;20.144;2023-04-20T02:21:06;100484.78;;;7.39;73.95
36664;BME280;53333;51.976;20.144;2023-04-20T02:23:40;100488.34;;;7.38;73.80
36664;BME280;53333;51.976;20.144;2023-04-20T02:26:13;100489.34;;;7.34;73.74
36664;BME280;53333;51.976;20.144;2023-04-20T02:28:47;100490.41;;;7.28;73.82
36664;BME280;53333;51.976;20.144;2023-04-20T02:31:20;100493.22;;;7.23;73.95
36664;BME280;53333;51.976;20.144;2023-04-20T02:33:53;100496.84;;;7.19;73.75
36664;BME280;53333;51.976;20.144;2023-04-20T02:36:26;100496.09;;;7.16;74.01
36664;BME280;53333;51.976;20.144;2023-04-20T02:39:01;100493.56;;;7.11;73.87
36664;BME280;53333;51.976;20.144;2023-04-20T02:41:37;100494.59;;;7.07;73.91
36664;BME280;53333;51.976;20.144;2023-04-20T02:44:10;100490.25;;;7.03;73.97
36664;BME280;53333;51.976;20.144;2023-04-20T02:46:43;100493.88;;;7.00;74.05
36664;BME280;53333;51.976;20.144;2023-04-20T02:49:17;100499.22;;;6.99;74.13
36664;BME280;53333;51.976;20.144;2023-04-20T02:51:50;100498.44;;;6.95;74.17
36664;BME280;53333;51.976;20.144;2023-04-20T02:54:25;100504.72;;;6.93;74.16
36664;BME280;53333;51.976;20.144;2023-04-20T02:56:58;100499.50;;;6.89;74.19
36664;BME280;53333;51.976;20.144;2023-04-20T02:59:31;100502.19;;;6.88;74.14
36664;BME280;53333;51.976;20.144;2023-04-20T03:02:18;100497.84;;;6.85;74.20
36664;BME280;53333;51.976;20.144;2023-04-20T03:04:52;100497.91;;;6.82;74.13
36664;BME280;53333;51.976;20.144;2023-04-20T03:07:25;100499.75;;;6.80;74.11
36664;BME280;53333;51.976;20.144;2023-04-20T03:10:00;100501.22;;;6.90;73.91
36664;BME280;53333;51.976;20.144;2023-04-20T03:12:57;100498.03;;;6.78;73.81
36664;BME280;53333;51.976;20.144;2023-04-20T03:15:36;100504.34;;;6.75;73.84
36664;BME280;53333;51.976;20.144;2023-04-20T03:18:18;100503.53;;;6.71;73.88
36664;BME280;53333;51.976;20.144;2023-04-20T03:20:51;100505.31;;;6.71;74.07
36664;BME280;53333;51.976;20.144;2023-04-20T03:23:24;100498.25;;;6.70;74.01
36664;BME280;53333;51.976;20.144;2023-04-20T03:25:59;100501.88;;;6.67;73.95
36664;BME280;53333;51.976;20.144;2023-04-20T03:28:54;100497.47;;;6.66;73.96
36664;BME280;53333;51.976;20.144;2023-04-20T03:31:29;100489.59;;;6.63;73.84
36664;BME280;53333;51.976;20.144;2023-04-20T03:34:03;100488.72;;;6.63;74.03
36664;BME280;53333;51.976;20.144;2023-04-20T03:36:36;100492.31;;;6.60;74.17
36664;BME280;53333;51.976;20.144;2023-04-20T03:39:09;100515.41;;;6.58;74.08
36664;BME280;53333;51.976;20.144;2023-04-20T03:41:44;100513.56;;;6.60;74.20
36664;BME280;53333;51.976;20.144;2023-04-20T03:44:17;100513.53;;;6.62;73.98
36664;BME280;53333;51.976;20.144;2023-04-20T03:46:50;100517.00;;;6.65;74.04
36664;BME280;53333;51.976;20.144;2023-04-20T03:49:24;100516.91;;;6.67;73.97
36664;BME280;53333;51.976;20.144;2023-04-20T03:51:57;100523.09;;;6.69;74.00
36664;BME280;53333;51.976;20.144;2023-04-20T03:54:30;100523.81;;;6.74;74.09
36664;BME280;53333;51.976;20.144;2023-04-20T03:57:05;100523.69;;;6.79;73.83
36664;BME280;53333;51.976;20.144;2023-04-20T03:59:38;100516.56;;;6.81;73.87
36664;BME280;53333;51.976;20.144;2023-04-20T04:56:11;100532.34;;;8.05;72.88
36664;BME280;53333;51.976;20.144;2023-04-20T04:58:44;100532.13;;;8.12;72.97
36664;BME280;53333;51.976;20.144;2023-04-20T05:01:17;100537.06;;;8.23;72.92
36664;BME280;53333;51.976;20.144;2023-04-20T05:03:50;100543.03;;;8.31;72.82
36664;BME280;53333;51.976;20.144;2023-04-20T05:06:23;100543.63;;;8.40;72.78
36664;BME280;53333;51.976;20.144;2023-04-20T05:08:56;100537.19;;;8.47;72.84
36664;BME280;53333;51.976;20.144;2023-04-20T05:11:30;100541.41;;;8.54;72.66
36664;BME280;53333;51.976;20.144;2023-04-20T05:14:03;100539.41;;;8.61;72.52
36664;BME280;53333;51.976;20.144;2023-04-20T05:16:36;100544.50;;;8.67;72.47
36664;BME280;53333;51.976;20.144;2023-04-20T05:19:09;100541.63;;;8.73;72.20
36664;BME280;53333;51.976;20.144;2023-04-20T05:21:42;100544.97;;;8.80;72.31
36664;BME280;53333;51.976;20.144;2023-04-20T05:24:16;100543.84;;;8.85;72.12
36664;BME280;53333;51.976;20.144;2023-04-20T05:26:51;100549.84;;;8.92;72.13
36664;BME280;53333;51.976;20.144;2023-04-20T05:29:24;100549.50;;;9.01;72.00
36664;BME280;53333;51.976;20.144;2023-04-20T05:31:57;100552.78;;;9.09;72.02
36664;BME280;53333;51.976;20.144;2023-04-20T05:34:30;100551.56;;;9.18;72.00
36664;BME280;53333;51.976;20.144;2023-04-20T05:37:03;100555.56;;;9.30;71.88
36664;BME280;53333;51.976;20.144;2023-04-20T05:39:36;100559.56;;;9.42;71.75
36664;BME280;53333;51.976;20.144;2023-04-20T05:42:10;100564.50;;;9.53;71.77
36664;BME280;53333;51.976;20.144;2023-04-20T05:44:43;100563.97;;;9.67;71.58
36664;BME280;53333;51.976;20.144;2023-04-20T05:47:16;100563.44;;;9.80;71.29
36664;BME280;53333;51.976;20.144;2023-04-20T05:49:48;100571.88;;;9.92;71.06
36664;BME280;53333;51.976;20.144;2023-04-20T05:52:21;100573.28;;;10.02;71.03
36664;BME280;53333;51.976;20.144;2023-04-20T05:54:54;100566.63;;;10.12;71.07
36664;BME280;53333;51.976;20.144;2023-04-20T05:57:28;100560.78;;;10.25;70.93
36664;BME280;53333;51.976;20.144;2023-04-20T06:00:01;100573.53;;;10.40;70.74
36664;BME280;53333;51.976;20.144;2023-04-20T06:02:43;100565.00;;;10.52;70.81
36664;BME280;53333;51.976;20.144;2023-04-20T06:05:16;100566.31;;;10.64;70.71
36664;BME280;53333;51.976;20.144;2023-04-20T06:07:49;100568.56;;;10.73;70.52
36664;BME280;53333;51.976;20.144;2023-04-20T06:10:22;100575.38;;;10.81;70.40
36664;BME280;53333;51.976;20.144;2023-04-20T06:12:56;100577.81;;;10.87;70.25
36664;BME280;53333;51.976;20.144;2023-04-20T06:15:29;100573.78;;;10.97;70.18
36664;BME280;53333;51.976;20.144;2023-04-20T06:18:02;100574.25;;;11.07;70.03
36664;BME280;53333;51.976;20.144;2023-04-20T06:20:36;100577.38;;;11.17;69.85
36664;BME280;53333;51.976;20.144;2023-04-20T06:23:09;100582.47;;;11.42;69.50
36664;BME280;53333;51.976;20.144;2023-04-20T06:25:43;100581.50;;;11.44;69.36
36664;BME280;53333;51.976;20.144;2023-04-20T06:28:17;100581.94;;;11.54;69.19
36664;BME280;53333;51.976;20.144;2023-04-20T06:30:50;100583.22;;;11.64;68.95
36664;BME280;53333;51.976;20.144;2023-04-20T06:33:23;100587.28;;;11.73;68.73
36664;BME280;53333;51.976;20.144;2023-04-20T06:35:56;100577.41;;;11.94;68.78
36664;BME280;53333;51.976;20.144;2023-04-20T06:38:29;100587.03;;;11.98;68.41
36664;BME280;53333;51.976;20.144;2023-04-20T06:41:02;100577.47;;;12.12;68.31
36664;BME280;53333;51.976;20.144;2023-04-20T06:43:37;100576.50;;;12.32;68.06
36664;BME280;53333;51.976;20.144;2023-04-20T06:46:09;100575.41;;;12.53;67.77
36664;BME280;53333;51.976;20.144;2023-04-20T06:48:42;100576.94;;;12.77;67.54
36664;BME280;53333;51.976;20.144;2023-04-20T06:51:15;100590.09;;;12.99;66.61
36664;BME280;53333;51.976;20.144;2023-04-20T06:53:48;100577.28;;;13.21;66.21
36664;BME280;53333;51.976;20.144;2023-04-20T06:56:22;100584.22;;;13.43;66.09
36664;BME280;53333;51.976;20.144;2023-04-20T06:58:56;100587.19;;;13.70;65.45
36664;BME280;53333;51.976;20.144;2023-04-20T07:01:29;100589.47;;;14.10;64.54
36664;BME280;53333;51.976;20.144;2023-04-20T07:04:02;100595.34;;;14.48;63.99
36664;BME280;53333;51.976;20.144;2023-04-20T07:06:36;100583.19;;;14.73;63.41
36664;BME280;53333;51.976;20.144;2023-04-20T07:09:08;100589.50;;;15.02;62.40
36664;BME280;53333;51.976;20.144;2023-04-20T07:11:41;100587.41;;;15.36;61.39
36664;BME280;53333;51.976;20.144;2023-04-20T07:14:16;100584.72;;;15.65;60.19
36664;BME280;53333;51.976;20.144;2023-04-20T07:16:51;100586.94;;;15.87;59.45
36664;BME280;53333;51.976;20.144;2023-04-20T07:19:28;100585.13;;;16.02;58.55
36664;BME280;53333;51.976;20.144;2023-04-20T07:22:01;100584.88;;;16.20;57.97
36664;BME280;53333;51.976;20.144;2023-04-20T07:24:36;100592.34;;;16.29;56.61
36664;BME280;53333;51.976;20.144;2023-04-20T07:27:10;100591.50;;;16.28;56.04
36664;BME280;53333;51.976;20.144;2023-04-20T07:29:44;100597.63;;;16.30;55.66
36664;BME280;53333;51.976;20.144;2023-04-20T07:32:18;100606.19;;;16.37;54.99
36664;BME280;53333;51.976;20.144;2023-04-20T07:34:51;100595.47;;;16.50;54.22
36664;BME280;53333;51.976;20.144;2023-04-20T07:37:26;100596.91;;;16.68;53.54
36664;BME280;53333;51.976;20.144;2023-04-20T07:40:00;100600.91;;;16.90;52.89
36664;BME280;53333;51.976;20.144;2023-04-20T07:42:37;100606.00;;;17.08;51.61
36664;BME280;53333;51.976;20.144;2023-04-20T07:45:12;100599.31;;;17.26;51.12
36664;BME280;53333;51.976;20.144;2023-04-20T07:47:47;100593.06;;;17.38;51.15
36664;BME280;53333;51.976;20.144;2023-04-20T07:50:24;100591.19;;;17.52;50.42
36664;BME280;53333;51.976;20.144;2023-04-20T07:52:59;100599.50;;;17.87;50.48
36664;BME280;53333;51.976;20.144;2023-04-20T07:55:35;100596.09;;;18.22;49.75
36664;BME280;53333;51.976;20.144;2023-04-20T07:58:09;100597.34;;;18.54;48.64
36664;BME280;53333;51.976;20.144;2023-04-20T08:00:47;100596.19;;;18.69;48.42
36664;BME280;53333;51.976;20.144;2023-04-20T08:03:22;100597.25;;;18.91;47.97
36664;BME280;53333;51.976;20.144;2023-04-20T08:05:58;100598.00;;;19.39;47.46
36664;BME280;53333;51.976;20.144;2023-04-20T08:08:35;100596.06;;;19.98;46.27
36664;BME280;53333;51.976;20.144;2023-04-20T08:11:10;100601.13;;;19.91;46.07
36664;BME280;53333;51.976;20.144;2023-04-20T08:13:45;100604.56;;;19.71;45.27
36664;BME280;53333;51.976;20.144;2023-04-20T08:16:20;100602.09;;;19.56;44.53
36664;BME280;53333;51.976;20.144;2023-04-20T08:18:55;100603.06;;;19.55;44.41
36664;BME280;53333;51.976;20.144;2023-04-20T08:21:29;100605.78;;;19.55;45.38
36664;BME280;53333;51.976;20.144;2023-04-20T08:24:09;100605.06;;;19.65;44.18
36664;BME280;53333;51.976;20.144;2023-04-20T08:26:44;100614.38;;;19.60;43.74
36664;BME280;53333;51.976;20.144;2023-04-20T08:29:19;100615.75;;;19.66;43.47
36664;BME280;53333;51.976;20.144;2023-04-20T08:31:59;100608.16;;;19.83;43.47
36664;BME280;53333;51.976;20.144;2023-04-20T08:34:36;100617.50;;;20.01;42.96
36664;BME280;53333;51.976;20.144;2023-04-20T08:37:09;100623.41;;;20.18;42.72
36664;BME280;53333;51.976;20.144;2023-04-20T08:39:43;100611.16;;;20.35;41.75
36664;BME280;53333;51.976;20.144;2023-04-20T08:42:16;100601.97;;;20.58;41.82
36664;BME280;53333;51.976;20.144;2023-04-20T08:44:49;100609.28;;;20.90;40.99
36664;BME280;53333;51.976;20.144;2023-04-20T08:47:23;100609.47;;;21.40;41.05
36664;BME280;53333;51.976;20.144;2023-04-20T08:49:58;100607.25;;;21.76;39.62
36664;BME280;53333;51.976;20.144;2023-04-20T08:52:34;100604.41;;;22.28;38.25
36664;BME280;53333;51.976;20.144;2023-04-20T08:55:15;100609.78;;;22.69;37.47
36664;BME280;53333;51.976;20.144;2023-04-20T08:58:17;100603.25;;;24.23;35.32
36664;BME280;53333;51.976;20.144;2023-04-20T09:00:52;100615.25;;;26.25;32.52
36664;BME280;53333;51.976;20.144;2023-04-20T09:03:32;100606.16;;;28.37;29.82
36664;BME280;53333;51.976;20.144;2023-04-20T09:06:14;100599.81;;;30.34;27.01
36664;BME280;53333;51.976;20.144;2023-04-20T09:08:48;100608.88;;;31.99;25.88
36664;BME280;53333;51.976;20.144;2023-04-20T09:11:21;100599.25;;;33.45;23.27
36664;BME280;53333;51.976;20.144;2023-04-20T09:13:58;100605.81;;;34.74;21.86
36664;BME280;53333;51.976;20.144;2023-04-20T09:16:31;100607.59;;;35.88;20.24
36664;BME280;53333;51.976;20.144;2023-04-20T09:19:06;100613.66;;;36.95;19.20
36664;BME280;53333;51.976;20.144;2023-04-20T09:21:47;100604.69;;;37.23;18.61
36664;BME280;53333;51.976;20.144;2023-04-20T09:24:21;100599.81;;;35.97;19.43
36664;BME280;53333;51.976;20.144;2023-04-20T09:26:54;100599.91;;;34.57;20.06
36664;BME280;53333;51.976;20.144;2023-04-20T09:29:27;100600.72;;;33.54;20.26
36664;BME280;53333;51.976;20.144;2023-04-20T09:32:01;100596.00;;;33.81;20.08
36664;BME280;53333;51.976;20.144;2023-04-20T09:34:42;100598.34;;;34.75;19.57
36664;BME280;53333;51.976;20.144;2023-04-20T09:37:15;100600.84;;;35.59;19.10
36664;BME280;53333;51.976;20.144;2023-04-20T09:39:49;100603.47;;;36.46;18.52
36664;BME280;53333;51.976;20.144;2023-04-20T09:42:26;100609.16;;;37.36;17.50
36664;BME280;53333;51.976;20.144;2023-04-20T09:45:00;100601.34;;;37.02;17.00
36664;BME280;53333;51.976;20.144;2023-04-20T09:47:34;100606.31;;;37.12;16.83
36664;BME280;53333;51.976;20.144;2023-04-20T09:50:13;100595.19;;;37.83;15.83
36664;BME280;53333;51.976;20.144;2023-04-20T09:53:00;100593.63;;;38.57;15.31
36664;BME280;53333;51.976;20.144;2023-04-20T09:55:35;100586.31;;;39.30;14.20
36664;BME280;53333;51.976;20.144;2023-04-20T09:58:07;100598.59;;;38.83;14.24
36664;BME280;53333;51.976;20.144;2023-04-20T10:00:41;100596.34;;;38.23;14.25
36664;BME280;53333;51.976;20.144;2023-04-20T10:03:15;100577.31;;;37.55;14.69
36664;BME280;53333;51.976;20.144;2023-04-20T10:05:50;100576.66;;;36.03;15.87
36664;BME280;53333;51.976;20.144;2023-04-20T10:08:26;100576.00;;;34.31;17.14
36664;BME280;53333;51.976;20.144;2023-04-20T10:10:59;100578.34;;;32.69;18.15
36664;BME280;53333;51.976;20.144;2023-04-20T10:13:32;100569.03;;;31.10;19.04
36664;BME280;53333;51.976;20.144;2023-04-20T10:16:16;100568.09;;;29.57;20.33
36664;BME280;53333;51.976;20.144;2023-04-20T10:18:56;100568.44;;;28.31;21.52
36664;BME280;53333;51.976;20.144;2023-04-20T10:21:32;100566.56;;;27.19;22.63
36664;BME280;53333;51.976;20.144;2023-04-20T10:24:05;100567.53;;;26.36;23.78
36664;BME280;53333;51.976;20.144;2023-04-20T10:26:40;100561.09;;;25.68;24.39
36664;BME280;53333;51.976;20.144;2023-04-20T10:29:22;100558.06;;;25.19;25.25
36664;BME280;53333;51.976;20.144;2023-04-20T10:31:56;100554.63;;;24.73;26.36
36664;BME280;53333;51.976;20.144;2023-04-20T10:34:33;100560.53;;;24.32;26.48
36664;BME280;53333;51.976;20.144;2023-04-20T10:37:08;100555.53;;;24.09;27.55
36664;BME280;53333;51.976;20.144;2023-04-20T10:39:43;100549.34;;;23.42;29.78
36664;BME280;53333;51.976;20.144;2023-04-20T10:42:16;100554.47;;;22.59;30.95
36664;BME280;53333;51.976;20.144;2023-04-20T10:44:50;100550.63;;;21.91;31.15
36664;BME280;53333;51.976;20.144;2023-04-20T10:47:26;100552.94;;;21.34;30.85
36664;BME280;53333;51.976;20.144;2023-04-20T10:50:07;100545.03;;;20.79;32.20
36664;BME280;53333;51.976;20.144;2023-04-20T10:52:43;100556.44;;;20.29;32.66
36664;BME280;53333;51.976;20.144;2023-04-20T10:55:20;100556.50;;;19.95;33.46
36664;BME280;53333;51.976;20.144;2023-04-20T10:57:53;100561.72;;;19.76;32.48
36664;BME280;53333;51.976;20.144;2023-04-20T11:00:27;100555.16;;;19.67;32.08
36664;BME280;53333;51.976;20.144;2023-04-20T11:03:03;100559.72;;;19.67;32.59
36664;BME280;53333;51.976;20.144;2023-04-20T11:05:37;100556.16;;;19.66;32.48
36664;BME280;53333;51.976;20.144;2023-04-20T11:08:11;100546.19;;;19.78;32.61
36664;BME280;53333;51.976;20.144;2023-04-20T11:10:44;100548.78;;;19.80;32.25
36664;BME280;53333;51.976;20.144;2023-04-20T11:13:19;100553.81;;;19.73;32.98
36664;BME280;53333;51.976;20.144;2023-04-20T11:15:53;100545.56;;;19.63;33.09
36664;BME280;53333;51.976;20.144;2023-04-20T11:18:26;100550.88;;;19.53;32.79
36664;BME280;53333;51.976;20.144;2023-04-20T11:21:01;100552.94;;;19.38;32.75
36664;BME280;53333;51.976;20.144;2023-04-20T11:23:37;100565.50;;;19.28;33.02
36664;BME280;53333;51.976;20.144;2023-04-20T11:26:10;100558.81;;;19.21;32.87
36664;BME280;53333;51.976;20.144;2023-04-20T11:28:52;100555.75;;;19.26;33.35
36664;BME280;53333;51.976;20.144;2023-04-20T11:31:27;100561.47;;;19.34;33.15
36664;BME280;53333;51.976;20.144;2023-04-20T11:34:00;100561.69;;;19.42;33.15
36664;BME280;53333;51.976;20.144;2023-04-20T11:36:37;100559.25;;;19.50;32.75
36664;BME280;53333;51.976;20.144;2023-04-20T11:39:12;100556.66;;;19.60;32.92
36664;BME280;53333;51.976;20.144;2023-04-20T11:41:46;100556.53;;;19.73;33.09
36664;BME280;53333;51.976;20.144;2023-04-20T11:44:19;100552.47;;;19.90;33.48
36664;BME280;53333;51.976;20.144;2023-04-20T11:46:53;100555.75;;;20.05;32.86
36664;BME280;53333;51.976;20.144;2023-04-20T11:49:27;100550.31;;;20.16;32.52
36664;BME280;53333;51.976;20.144;2023-04-20T11:52:00;100547.69;;;20.26;32.59
36664;BME280;53333;51.976;20.144;2023-04-20T11:54:35;100540.41;;;20.38;32.33
36664;BME280;53333;51.976;20.144;2023-04-20T11:57:09;100547.72;;;20.47;31.97
36664;BME280;53333;51.976;20.144;2023-04-20T11:59:42;100545.25;;;20.55;31.91
36664;BME280;53333;51.976;20.144;2023-04-20T12:02:18;100542.66;;;20.65;31.65
36664;BME280;53333;51.976;20.144;2023-04-20T12:05:56;100534.72;;;20.73;31.57
36664;BME280;53333;51.976;20.144;2023-04-20T12:08:31;100543.91;;;20.82;31.43
36664;BME280;53333;51.976;20.144;2023-04-20T12:11:06;100536.44;;;20.95;31.01
36664;BME280;53333;51.976;20.144;2023-04-20T12:13:39;100536.94;;;21.10;31.56
36664;BME280;53333;51.976;20.144;2023-04-20T12:16:12;100537.19;;;21.28;31.06
36664;BME280;53333;51.976;20.144;2023-04-20T12:18:45;100538.06;;;21.50;30.16
36664;BME280;53333;51.976;20.144;2023-04-20T12:21:17;100526.28;;;21.80;29.68
36664;BME280;53333;51.976;20.144;2023-04-20T12:23:50;100528.78;;;22.12;29.68
36664;BME280;53333;51.976;20.144;2023-04-20T12:26:25;100521.41;;;22.34;29.66
36664;BME280;53333;51.976;20.144;2023-04-20T12:29:09;100517.09;;;22.41;29.39
36664;BME280;53333;51.976;20.144;2023-04-20T12:31:42;100518.41;;;22.37;29.40
36664;BME280;53333;51.976;20.144;2023-04-20T12:34:15;100515.22;;;22.32;29.46
36664;BME280;53333;51.976;20.144;2023-04-20T12:36:48;100512.47;;;22.22;28.99
36664;BME280;53333;51.976;20.144;2023-04-20T12:39:21;100508.31;;;22.08;28.91
36664;BME280;53333;51.976;20.144;2023-04-20T12:41:55;100508.72;;;21.94;28.89
36664;BME280;53333;51.976;20.144;2023-04-20T12:44:28;100512.16;;;21.86;29.14
36664;BME280;53333;51.976;20.144;2023-04-20T12:47:01;100514.44;;;21.81;29.52
36664;BME280;53333;51.976;20.144;2023-04-20T12:49:34;100509.25;;;21.78;29.91
36664;BME280;53333;51.976;20.144;2023-04-20T12:52:07;100516.25;;;21.81;30.38
36664;BME280;53333;51.976;20.144;2023-04-20T12:54:40;100505.13;;;21.84;29.91
36664;BME280;53333;51.976;20.144;2023-04-20T12:57:16;100512.16;;;21.86;30.02
36664;BME280;53333;51.976;20.144;2023-04-20T12:59:49;100503.84;;;21.88;30.04
36664;BME280;53333;51.976;20.144;2023-04-20T13:02:22;100502.28;;;21.95;29.97
36664;BME280;53333;51.976;20.144;2023-04-20T13:04:55;100499.97;;;22.00;30.40
36664;BME280;53333;51.976;20.144;2023-04-20T13:07:29;100493.72;;;22.09;30.36
36664;BME280;53333;51.976;20.144;2023-04-20T13:10:02;100486.72;;;22.07;29.07
36664;BME280;53333;51.976;20.144;2023-04-20T13:12:36;100486.09;;;22.03;29.02
36664;BME280;53333;51.976;20.144;2023-04-20T13:15:09;100486.84;;;22.05;28.75
36664;BME280;53333;51.976;20.144;2023-04-20T13:17:43;100487.28;;;22.20;27.91
36664;BME280;53333;51.976;20.144;2023-04-20T13:20:16;100487.16;;;22.31;27.85
36664;BME280;53333;51.976;20.144;2023-04-20T13:22:49;100477.59;;;22.37;27.46
36664;BME280;53333;51.976;20.144;2023-04-20T13:25:29;100480.03;;;22.40;26.40
36664;BME280;53333;51.976;20.144;2023-04-20T13:28:04;100483.47;;;22.33;25.77
36664;BME280;53333;51.976;20.144;2023-04-20T13:30:37;100491.00;;;22.19;25.99
36664;BME280;53333;51.976;20.144;2023-04-20T13:33:10;100482.13;;;21.98;26.16
36664;BME280;53333;51.976;20.144;2023-04-20T13:35:43;100485.66;;;21.79;25.97
36664;BME280;53333;51.976;20.144;2023-04-20T13:38:19;100490.91;;;21.61;26.23
36664;BME280;53333;51.976;20.144;2023-04-20T13:40:52;100495.88;;;21.55;26.98
36664;BME280;53333;51.976;20.144;2023-04-20T13:43:26;100486.44;;;21.59;27.43
36664;BME280;53333;51.976;20.144;2023-04-20T13:45:59;100478.88;;;21.63;26.77
36664;BME280;53333;51.976;20.144;2023-04-20T13:48:32;100482.63;;;21.62;26.29
36664;BME280;53333;51.976;20.144;2023-04-20T13:51:05;100479.00;;;21.62;26.86
36664;BME280;53333;51.976;20.144;2023-04-20T13:53:38;100479.16;;;21.60;26.40
36664;BME280;53333;51.976;20.144;2023-04-20T13:56:11;100481.59;;;21.63;26.17
36664;BME280;53333;51.976;20.144;2023-04-20T13:58:45;100471.00;;;21.60;26.22
36664;BME280;53333;51.976;20.144;2023-04-20T14:01:18;100481.28;;;21.56;25.77
36664;BME280;53333;51.976;20.144;2023-04-20T14:03:51;100482.41;;;21.54;25.80
36664;BME280;53333;51.976;20.144;2023-04-20T14:06:24;100478.13;;;21.51;25.74
36664;BME280;53333;51.976;20.144;2023-04-20T14:08:58;100478.13;;;21.51;25.92
36664;BME280;53333;51.976;20.144;2023-04-20T14:11:31;100475.72;;;21.58;26.27
36664;BME280;53333;51.976;20.144;2023-04-20T14:14:05;100480.16;;;21.59;26.48